sensor_id;sensor_type;location;lat;lon;timestamp;pressure;altitude;pressure_sealevel;temperature;humidity
32083;BME280;18597;48.328;7.932;2024-03-02T00:02:23;98398.81;;;1.84;100.00
32083;BME280;18597;48.328;7.932;2024-03-02T00:04:49;98398.94;;;1.82;100.00
32083;BME280;18597;48.328;7.932;2024-03-02T00:07:15;98395.13;;;1.86;100.00
32083;BME280;18597;48.328;7.932;2024-03-02T00:09:41;98390.38;;;1.79;100.00
32083;BME280;18597;48.328;7.932;2024-03-02T00:12:10;98390.81;;;1.73;100.00
32083;BME280;18597;48.328;7.932;2024-03-02T00:14:37;98386.72;;;1.69;100.00
32083;BME280;18597;48.328;7.932;2024-03-02T00:17:03;98384.91;;;1.69;100.00
32083;BME280;18597;48.328;7.932;2024-03-02T00:19:29;98389.97;;;1.72;100.00
32083;BME280;18597;48.328;7.932;2024-03-02T00:21:55;98385.66;;;1.71;100.00
32083;BME280;18597;48.328;7.932;2024-03-02T00:24:31;98387.84;;;1.64;100.00
32083;BME280;18597;48.328;7.932;2024-03-02T00:26:58;98388.38;;;1.57;100.00
32083;BME280;18597;48.328;7.932;2024-03-02T00:29:24;98393.47;;;1.60;100.00
32083;BME280;18597;48.328;7.932;2024-03-02T00:31:50;98406.38;;;1.37;100.00
32083;BME280;18597;48.328;7.932;2024-03-02T00:34:17;98403.75;;;1.63;100.00
32083;BME280;18597;48.328;7.932;2024-03-02T00:36:43;98401.97;;;1.76;100.00
32083;BME280;18597;48.328;7.932;2024-03-02T00:39:12;98405.44;;;1.77;100.00
32083;BME280;18597;48.328;7.932;2024-03-02T00:41:41;98403.78;;;1.76;100.00
32083;BME280;18597;48.328;7.932;2024-03-02T00:44:13;98415.25;;;1.75;100.00
32083;BME280;18597;48.328;7.932;2024-03-02T00:46:42;98409.88;;;1.63;100.00
32083;BME280;18597;48.328;7.932;2024-03-02T00:49:28;98413.75;;;1.58;100.00
32083;BME280;18597;48.328;7.932;2024-03-02T00:51:54;98405.13;;;1.56;100.00
32083;BME280;18597;48.328;7.932;2024-03-02T00:54:23;98401.34;;;1.47;100.00
32083;BME280;18597;48.328;7.932;2024-03-02T00:56:50;98402.28;;;1.46;100.00
32083;BME280;18597;48.328;7.932;2024-03-02T00:59:17;98402.06;;;1.49;100.00
32083;BME280;18597;48.328;7.932;2024-03-02T01:01:43;98392.69;;;1.58;100.00
32083;BME280;18597;48.328;7.932;2024-03-02T01:04:09;98394.91;;;1.64;100.00
32083;BME280;18597;48.328;7.932;2024-03-02T01:06:35;98395.97;;;1.61;100.00
32083;BME280;18597;48.328;7.932;2024-03-02T01:09:02;98394.41;;;1.59;100.00
32083;BME280;18597;48.328;7.932;2024-03-02T01:11:28;98388.50;;;1.55;100.00
32083;BME280;18597;48.328;7.932;2024-03-02T01:13:55;98385.13;;;1.53;100.00
32083;BME280;18597;48.328;7.932;2024-03-02T01:16:21;98381.84;;;1.50;100.00
32083;BME280;18597;48.328;7.932;2024-03-02T01:18:47;98389.13;;;1.46;100.00
32083;BME280;18597;48.328;7.932;2024-03-02T01:21:13;98391.22;;;1.41;100.00
32083;BME280;18597;48.328;7.932;2024-03-02T01:23:39;98393.63;;;1.31;100.00
32083;BME280;18597;48.328;7.932;2024-03-02T01:26:05;98391.19;;;1.28;100.00
32083;BME280;18597;48.328;7.932;2024-03-02T01:28:31;98394.25;;;1.22;100.00
32083;BME280;18597;48.328;7.932;2024-03-02T01:30:57;98398.44;;;1.12;100.00
32083;BME280;18597;48.328;7.932;2024-03-02T01:33:23;98400.25;;;1.24;100.00
32083;BME280;18597;48.328;7.932;2024-03-02T01:35:48;98398.38;;;1.14;100.00
32083;BME280;18597;48.328;7.932;2024-03-02T01:38:14;98400.34;;;1.10;100.00
32083;BME280;18597;48.328;7.932;2024-03-02T01:40:40;98392.66;;;1.07;100.00
32083;BME280;18597;48.328;7.932;2024-03-02T01:43:07;98392.22;;;1.13;100.00
32083;BME280;18597;48.328;7.932;2024-03-02T01:45:34;98390.03;;;1.07;100.00
32083;BME280;18597;48.328;7.932;2024-03-02T01:48:01;98397.25;;;1.03;100.00
32083;BME280;18597;48.328;7.932;2024-03-02T01:50:30;98388.09;;;0.96;100.00
32083;BME280;18597;48.328;7.932;2024-03-02T01:52:57;98395.81;;;0.99;100.00
32083;BME280;18597;48.328;7.932;2024-03-02T01:55:23;98393.00;;;1.15;100.00
32083;BME280;18597;48.328;7.932;2024-03-02T01:57:49;98389.00;;;1.22;100.00
32083;BME280;18597;48.328;7.932;2024-03-02T02:00:18;98391.31;;;1.14;100.00
32083;BME280;18597;48.328;7.932;2024-03-02T02:02:45;98389.34;;;1.30;100.00
32083;BME280;18597;48.328;7.932;2024-03-02T02:05:12;98385.59;;;1.07;100.00
32083;BME280;18597;48.328;7.932;2024-03-02T02:07:41;98381.31;;;1.19;100.00
32083;BME280;18597;48.328;7.932;2024-03-02T02:10:08;98376.13;;;1.05;100.00
32083;BME280;18597;48.328;7.932;2024-03-02T02:12:35;98372.47;;;1.07;100.00
32083;BME280;18597;48.328;7.932;2024-03-02T02:15:01;98374.13;;;1.08;100.00
32083;BME280;18597;48.328;7.932;2024-03-02T02:17:26;98369.00;;;1.07;100.00
32083;BME280;18597;48.328;7.932;2024-03-02T02:19:52;98368.75;;;0.97;100.00
32083;BME280;18597;48.328;7.932;2024-03-02T02:22:18;98366.53;;;0.91;100.00
32083;BME280;18597;48.328;7.932;2024-03-02T02:24:44;98367.09;;;0.69;100.00
32083;BME280;18597;48.328;7.932;2024-03-02T02:27:10;98361.94;;;0.68;100.00
32083;BME280;18597;48.328;7.932;2024-03-02T02:29:36;98353.91;;;0.83;100.00
32083;BME280;18597;48.328;7.932;2024-03-02T02:32:02;98356.22;;;0.88;100.00
32083;BME280;18597;48.328;7.932;2024-03-02T02:34:28;98345.63;;;0.63;100.00
32083;BME280;18597;48.328;7.932;2024-03-02T02:36:54;98352.00;;;0.86;100.00
32083;BME280;18597;48.328;7.932;2024-03-02T02:39:21;98345.41;;;1.05;100.00
32083;BME280;18597;48.328;7.932;2024-03-02T02:41:48;98340.66;;;0.98;100.00
32083;BME280;18597;48.328;7.932;2024-03-02T02:44:14;98333.56;;;0.73;100.00
32083;BME280;18597;48.328;7.932;2024-03-02T02:46:41;98326.81;;;0.56;100.00
32083;BME280;18597;48.328;7.932;2024-03-02T02:49:07;98326.56;;;0.46;100.00
32083;BME280;18597;48.328;7.932;2024-03-02T02:51:33;98339.88;;;0.43;100.00
32083;BME280;18597;48.328;7.932;2024-03-02T02:53:59;98331.56;;;0.64;100.00
32083;BME280;18597;48.328;7.932;2024-03-02T02:56:25;98332.44;;;0.50;100.00
32083;BME280;18597;48.328;7.932;2024-03-02T02:58:50;98336.56;;;0.54;100.00
32083;BME280;18597;48.328;7.932;2024-03-02T03:01:17;98332.94;;;0.42;100.00
32083;BME280;18597;48.328;7.932;2024-03-02T03:03:44;98329.25;;;0.45;100.00
32083;BME280;18597;48.328;7.932;2024-03-02T03:06:10;98326.84;;;0.42;100.00
32083;BME280;18597;48.328;7.932;2024-03-02T03:08:36;98328.53;;;0.43;100.00
32083;BME280;18597;48.328;7.932;2024-03-02T03:11:03;98324.66;;;0.48;100.00
32083;BME280;18597;48.328;7.932;2024-03-02T03:13:28;98321.59;;;0.42;100.00
32083;BME280;18597;48.328;7.932;2024-03-02T03:15:54;98323.66;;;0.37;100.00
32083;BME280;18597;48.328;7.932;2024-03-02T03:18:20;98316.28;;;0.56;100.00
32083;BME280;18597;48.328;7.932;2024-03-02T03:20:46;98322.53;;;0.41;100.00
32083;BME280;18597;48.328;7.932;2024-03-02T03:23:11;98319.69;;;0.44;100.00
32083;BME280;18597;48.328;7.932;2024-03-02T03:25:41;98309.47;;;0.66;100.00
32083;BME280;18597;48.328;7.932;2024-03-02T03:28:08;98316.84;;;0.61;100.00
32083;BME280;18597;48.328;7.932;2024-03-02T03:30:37;98309.19;;;0.71;100.00
32083;BME280;18597;48.328;7.932;2024-03-02T03:33:03;98309.19;;;0.71;100.00
32083;BME280;18597;48.328;7.932;2024-03-02T03:35:32;98312.09;;;0.53;100.00
32083;BME280;18597;48.328;7.932;2024-03-02T03:37:57;98310.53;;;0.37;100.00
32083;BME280;18597;48.328;7.932;2024-03-02T03:40:24;98311.13;;;0.27;100.00
32083;BME280;18597;48.328;7.932;2024-03-02T03:42:49;98309.66;;;0.23;100.00
32083;BME280;18597;48.328;7.932;2024-03-02T03:45:16;98321.41;;;0.18;100.00
32083;BME280;18597;48.328;7.932;2024-03-02T03:47:42;98309.97;;;0.46;100.00
32083;BME280;18597;48.328;7.932;2024-03-02T03:50:08;98319.53;;;0.47;100.00
32083;BME280;18597;48.328;7.932;2024-03-02T03:52:34;98316.34;;;0.42;100.00
32083;BME280;18597;48.328;7.932;2024-03-02T03:55:00;98324.56;;;0.50;100.00
32083;BME280;18597;48.328;7.932;2024-03-02T03:57:27;98320.53;;;0.44;100.00
32083;BME280;18597;48.328;7.932;2024-03-02T03:59:53;98320.03;;;0.52;100.00
32083;BME280;18597;48.328;7.932;2024-03-02T04:02:19;98324.78;;;0.60;100.00
32083;BME280;18597;48.328;7.932;2024-03-02T04:04:45;98319.31;;;0.50;100.00
32083;BME280;18597;48.328;7.932;2024-03-02T04:07:12;98322.53;;;0.41;100.00
32083;BME280;18597;48.328;7.932;2024-03-02T04:09:37;98331.38;;;0.40;100.00
32083;BME280;18597;48.328;7.932;2024-03-02T04:12:03;98334.38;;;0.34;100.00
32083;BME280;18597;48.328;7.932;2024-03-02T04:14:29;98331.88;;;0.32;100.00
32083;BME280;18597;48.328;7.932;2024-03-02T04:16:55;98337.66;;;0.37;100.00
32083;BME280;18597;48.328;7.932;2024-03-02T04:19:21;98337.00;;;0.34;100.00
32083;BME280;18597;48.328;7.932;2024-03-02T04:21:47;98332.22;;;0.40;100.00
32083;BME280;18597;48.328;7.932;2024-03-02T04:24:12;98344.41;;;0.41;100.00
32083;BME280;18597;48.328;7.932;2024-03-02T04:26:38;98346.94;;;0.43;100.00
32083;BME280;18597;48.328;7.932;2024-03-02T04:29:04;98348.81;;;0.41;100.00
32083;BME280;18597;48.328;7.932;2024-03-02T04:31:30;98341.88;;;0.40;100.00
32083;BME280;18597;48.328;7.932;2024-03-02T04:33:55;98341.78;;;0.41;100.00
32083;BME280;18597;48.328;7.932;2024-03-02T04:36:21;98347.66;;;0.45;100.00
32083;BME280;18597;48.328;7.932;2024-03-02T04:38:47;98336.97;;;0.48;100.00
32083;BME280;18597;48.328;7.932;2024-03-02T04:41:13;98342.63;;;0.42;100.00
32083;BME280;18597;48.328;7.932;2024-03-02T04:43:39;98349.50;;;0.30;100.00
32083;BME280;18597;48.328;7.932;2024-03-02T04:46:05;98349.25;;;0.20;100.00
32083;BME280;18597;48.328;7.932;2024-03-02T04:48:33;98345.28;;;0.27;100.00
32083;BME280;18597;48.328;7.932;2024-03-02T04:50:59;98355.69;;;0.29;100.00
32083;BME280;18597;48.328;7.932;2024-03-02T04:53:24;98343.81;;;0.23;100.00
32083;BME280;18597;48.328;7.932;2024-03-02T04:55:51;98348.41;;;0.20;100.00
32083;BME280;18597;48.328;7.932;2024-03-02T04:58:36;98348.16;;;0.10;100.00
32083;BME280;18597;48.328;7.932;2024-03-02T05:01:02;98350.28;;;0.18;100.00
32083;BME280;18597;48.328;7.932;2024-03-02T05:03:28;98343.50;;;0.28;100.00
32083;BME280;18597;48.328;7.932;2024-03-02T05:05:54;98343.41;;;0.30;100.00
32083;BME280;18597;48.328;7.932;2024-03-02T05:08:20;98347.63;;;0.32;100.00
32083;BME280;18597;48.328;7.932;2024-03-02T05:10:45;98354.84;;;0.28;100.00
32083;BME280;18597;48.328;7.932;2024-03-02T05:13:11;98355.41;;;0.34;100.00
32083;BME280;18597;48.328;7.932;2024-03-02T05:15:37;98356.44;;;0.31;100.00
32083;BME280;18597;48.328;7.932;2024-03-02T05:18:03;98349.59;;;0.28;100.00
32083;BME280;18597;48.328;7.932;2024-03-02T05:20:30;98344.97;;;0.46;100.00
32083;BME280;18597;48.328;7.932;2024-03-02T05:22:56;98350.84;;;0.50;100.00
32083;BME280;18597;48.328;7.932;2024-03-02T05:25:22;98352.06;;;0.44;100.00
32083;BME280;18597;48.328;7.932;2024-03-02T05:27:48;98357.25;;;0.46;100.00
32083;BME280;18597;48.328;7.932;2024-03-02T05:30:14;98351.56;;;0.52;100.00
32083;BME280;18597;48.328;7.932;2024-03-02T05:32:40;98351.56;;;0.52;100.00
32083;BME280;18597;48.328;7.932;2024-03-02T05:35:06;98348.31;;;0.48;100.00
32083;BME280;18597;48.328;7.932;2024-03-02T05:37:33;98349.44;;;0.44;100.00
32083;BME280;18597;48.328;7.932;2024-03-02T05:39:59;98349.00;;;0.38;100.00
32083;BME280;18597;48.328;7.932;2024-03-02T05:42:25;98352.84;;;0.46;100.00
32083;BME280;18597;48.328;7.932;2024-03-02T05:44:51;98358.94;;;0.47;100.00
32083;BME280;18597;48.328;7.932;2024-03-02T05:47:16;98358.94;;;0.47;100.00
32083;BME280;18597;48.328;7.932;2024-03-02T05:49:42;98354.47;;;0.35;100.00
32083;BME280;18597;48.328;7.932;2024-03-02T05:52:09;98358.59;;;0.39;100.00
32083;BME280;18597;48.328;7.932;2024-03-02T05:54:34;98358.88;;;0.34;100.00
32083;BME280;18597;48.328;7.932;2024-03-02T05:57:00;98361.63;;;0.45;100.00
32083;BME280;18597;48.328;7.932;2024-03-02T05:59:42;98353.13;;;0.42;100.00
32083;BME280;18597;48.328;7.932;2024-03-02T06:02:09;98357.75;;;0.38;100.00
32083;BME280;18597;48.328;7.932;2024-03-02T06:04:35;98357.66;;;0.40;100.00
32083;BME280;18597;48.328;7.932;2024-03-02T06:07:00;98363.41;;;0.45;100.00
32083;BME280;18597;48.328;7.932;2024-03-02T06:09:26;98360.75;;;0.59;100.00
32083;BME280;18597;48.328;7.932;2024-03-02T06:11:52;98359.22;;;0.69;100.00
32083;BME280;18597;48.328;7.932;2024-03-02T06:14:18;98359.75;;;0.74;100.00
32083;BME280;18597;48.328;7.932;2024-03-02T06:16:43;98359.22;;;0.69;100.00
32083;BME280;18597;48.328;7.932;2024-03-02T06:19:09;98366.16;;;0.70;100.00
32083;BME280;18597;48.328;7.932;2024-03-02T06:21:35;98359.44;;;0.79;100.00
32083;BME280;18597;48.328;7.932;2024-03-02T06:24:01;98360.78;;;0.99;100.00
32083;BME280;18597;48.328;7.932;2024-03-02T06:26:26;98354.66;;;1.11;100.00
32083;BME280;18597;48.328;7.932;2024-03-02T06:28:52;98358.50;;;1.32;100.00
32083;BME280;18597;48.328;7.932;2024-03-02T06:31:18;98354.06;;;1.33;100.00
32083;BME280;18597;48.328;7.932;2024-03-02T06:33:44;98350.50;;;1.47;100.00
32083;BME280;18597;48.328;7.932;2024-03-02T06:36:10;98351.34;;;1.60;100.00
32083;BME280;18597;48.328;7.932;2024-03-02T06:38:37;98347.84;;;1.72;100.00
32083;BME280;18597;48.328;7.932;2024-03-02T06:41:05;98350.16;;;1.77;100.00
32083;BME280;18597;48.328;7.932;2024-03-02T06:43:30;98356.09;;;2.41;100.00
32083;BME280;18597;48.328;7.932;2024-03-02T06:45:56;98346.22;;;3.03;100.00
32083;BME280;18597;48.328;7.932;2024-03-02T06:48:22;98347.97;;;3.60;100.00
32083;BME280;18597;48.328;7.932;2024-03-02T06:50:49;98332.16;;;3.72;100.00
32083;BME280;18597;48.328;7.932;2024-03-02T06:53:16;98338.25;;;4.17;100.00
32083;BME280;18597;48.328;7.932;2024-03-02T06:55:44;98345.88;;;4.54;100.00
32083;BME280;18597;48.328;7.932;2024-03-02T06:58:13;98354.00;;;5.98;100.00
32083;BME280;18597;48.328;7.932;2024-03-02T07:00:41;98348.47;;;7.19;100.00
32083;BME280;18597;48.328;7.932;2024-03-02T07:03:07;98343.97;;;7.86;100.00
32083;BME280;18597;48.328;7.932;2024-03-02T07:05:33;98339.66;;;6.99;100.00
32083;BME280;18597;48.328;7.932;2024-03-02T07:07:59;98350.84;;;5.83;100.00
32083;BME280;18597;48.328;7.932;2024-03-02T07:10:25;98342.94;;;5.00;100.00
32083;BME280;18597;48.328;7.932;2024-03-02T07:12:51;98344.47;;;4.38;100.00
32083;BME280;18597;48.328;7.932;2024-03-02T07:15:16;98347.47;;;4.34;100.00
32083;BME280;18597;48.328;7.932;2024-03-02T07:17:53;98343.78;;;5.21;100.00
32083;BME280;18597;48.328;7.932;2024-03-02T07:20:19;98344.47;;;5.96;100.00
32083;BME280;18597;48.328;7.932;2024-03-02T07:22:45;98343.66;;;6.35;100.00
32083;BME280;18597;48.328;7.932;2024-03-02T07:25:11;98346.69;;;6.31;100.00
32083;BME280;18597;48.328;7.932;2024-03-02T07:27:37;98337.41;;;7.23;100.00
32083;BME280;18597;48.328;7.932;2024-03-02T07:30:03;98329.88;;;7.75;100.00
32083;BME280;18597;48.328;7.932;2024-03-02T07:32:29;98332.00;;;8.82;97.65
32083;BME280;18597;48.328;7.932;2024-03-02T07:34:55;98329.53;;;9.68;84.12
32083;BME280;18597;48.328;7.932;2024-03-02T07:37:23;98331.84;;;10.73;78.12
32083;BME280;18597;48.328;7.932;2024-03-02T07:39:50;98336.47;;;10.63;75.38
32083;BME280;18597;48.328;7.932;2024-03-02T07:42:16;98333.91;;;9.77;83.29
32083;BME280;18597;48.328;7.932;2024-03-02T07:44:44;98324.88;;;10.97;72.37
32083;BME280;18597;48.328;7.932;2024-03-02T07:47:11;98337.28;;;9.53;80.61
32083;BME280;18597;48.328;7.932;2024-03-02T07:49:37;98336.78;;;9.84;82.90
32083;BME280;18597;48.328;7.932;2024-03-02T07:52:03;98342.16;;;10.60;75.76
32083;BME280;18597;48.328;7.932;2024-03-02T07:54:29;98336.53;;;9.25;89.10
32083;BME280;18597;48.328;7.932;2024-03-02T07:56:54;98337.38;;;9.26;90.63
32083;BME280;18597;48.328;7.932;2024-03-02T07:59:20;98331.66;;;9.64;87.89
32083;BME280;18597;48.328;7.932;2024-03-02T08:01:48;98333.34;;;9.22;93.27
32083;BME280;18597;48.328;7.932;2024-03-02T08:04:14;98336.50;;;9.43;92.34
32083;BME280;18597;48.328;7.932;2024-03-02T08:06:40;98330.63;;;10.51;80.28
32083;BME280;18597;48.328;7.932;2024-03-02T08:09:06;98320.16;;;11.56;70.47
32083;BME280;18597;48.328;7.932;2024-03-02T08:11:35;98329.22;;;11.14;73.60
32083;BME280;18597;48.328;7.932;2024-03-02T08:14:00;98329.00;;;9.90;88.61
32083;BME280;18597;48.328;7.932;2024-03-02T08:16:26;98323.47;;;8.96;100.00
32083;BME280;18597;48.328;7.932;2024-03-02T08:18:52;98330.81;;;7.94;100.00
32083;BME280;18597;48.328;7.932;2024-03-02T08:21:19;98325.94;;;7.42;100.00
32083;BME280;18597;48.328;7.932;2024-03-02T08:23:45;98326.44;;;7.56;100.00
32083;BME280;18597;48.328;7.932;2024-03-02T08:26:11;98320.16;;;7.94;100.00
32083;BME280;18597;48.328;7.932;2024-03-02T08:28:37;98317.56;;;8.12;100.00
32083;BME280;18597;48.328;7.932;2024-03-02T08:31:06;98316.22;;;7.98;100.00
32083;BME280;18597;48.328;7.932;2024-03-02T08:33:33;98317.94;;;7.89;100.00
32083;BME280;18597;48.328;7.932;2024-03-02T08:35:59;98316.88;;;7.72;100.00
32083;BME280;18597;48.328;7.932;2024-03-02T08:38:26;98323.56;;;7.76;100.00
32083;BME280;18597;48.328;7.932;2024-03-02T08:40:52;98319.25;;;7.75;100.00
32083;BME280;18597;48.328;7.932;2024-03-02T08:43:18;98316.53;;;7.85;100.00
32083;BME280;18597;48.328;7.932;2024-03-02T08:45:44;98318.53;;;7.83;100.00
32083;BME280;18597;48.328;7.932;2024-03-02T08:48:10;98312.19;;;7.94;100.00
32083;BME280;18597;48.328;7.932;2024-03-02T08:50:36;98305.00;;;8.04;100.00
32083;BME280;18597;48.328;7.932;2024-03-02T08:53:04;98308.00;;;8.19;100.00
32083;BME280;18597;48.328;7.932;2024-03-02T08:55:30;98303.03;;;8.33;100.00
32083;BME280;18597;48.328;7.932;2024-03-02T08:57:56;98296.22;;;8.67;100.00
32083;BME280;18597;48.328;7.932;2024-03-02T09:00:22;98300.72;;;8.84;100.00
32083;BME280;18597;48.328;7.932;2024-03-02T09:02:48;98294.00;;;8.98;100.00
32083;BME280;18597;48.328;7.932;2024-03-02T09:05:14;98304.03;;;9.22;100.00
32083;BME280;18597;48.328;7.932;2024-03-02T09:07:40;98302.34;;;9.38;100.00
32083;BME280;18597;48.328;7.932;2024-03-02T09:10:07;98305.91;;;9.47;100.00
32083;BME280;18597;48.328;7.932;2024-03-02T09:12:33;98307.66;;;9.64;100.00
32083;BME280;18597;48.328;7.932;2024-03-02T09:15:01;98296.28;;;9.88;100.00
32083;BME280;18597;48.328;7.932;2024-03-02T09:17:27;98301.66;;;10.22;100.00
32083;BME280;18597;48.328;7.932;2024-03-02T09:19:52;98301.84;;;10.29;100.00
32083;BME280;18597;48.328;7.932;2024-03-02T09:22:19;98295.38;;;10.48;94.11
32083;BME280;18597;48.328;7.932;2024-03-02T09:24:45;98291.75;;;10.65;95.21
32083;BME280;18597;48.328;7.932;2024-03-02T09:27:11;98294.94;;;10.77;92.83
32083;BME280;18597;48.328;7.932;2024-03-02T09:29:37;98283.44;;;11.09;86.17
32083;BME280;18597;48.328;7.932;2024-03-02T09:32:05;98274.06;;;11.29;81.78
32083;BME280;18597;48.328;7.932;2024-03-02T09:34:31;98279.94;;;11.41;81.76
32083;BME280;18597;48.328;7.932;2024-03-02T09:36:58;98268.66;;;11.62;81.14
32083;BME280;18597;48.328;7.932;2024-03-02T09:39:24;98283.84;;;11.70;76.30
32083;BME280;18597;48.328;7.932;2024-03-02T09:41:51;98279.66;;;11.91;78.91
32083;BME280;18597;48.328;7.932;2024-03-02T09:44:17;98272.97;;;11.96;78.66
32083;BME280;18597;48.328;7.932;2024-03-02T09:46:43;98277.28;;;12.05;78.60
32083;BME280;18597;48.328;7.932;2024-03-02T09:49:10;98279.72;;;12.14;74.51
32083;BME280;18597;48.328;7.932;2024-03-02T09:51:37;98267.81;;;12.25;72.38
32083;BME280;18597;48.328;7.932;2024-03-02T09:54:03;98264.09;;;12.34;72.74
32083;BME280;18597;48.328;7.932;2024-03-02T09:56:29;98259.09;;;12.77;65.86
32083;BME280;18597;48.328;7.932;2024-03-02T09:58:55;98253.50;;;13.10;65.10
32083;BME280;18597;48.328;7.932;2024-03-02T10:01:21;98249.56;;;13.20;65.75
32083;BME280;18597;48.328;7.932;2024-03-02T10:03:47;98251.09;;;13.23;63.82
32083;BME280;18597;48.328;7.932;2024-03-02T10:06:23;98253.03;;;13.44;59.57
32083;BME280;18597;48.328;7.932;2024-03-02T10:08:49;98249.94;;;13.70;58.12
32083;BME280;18597;48.328;7.932;2024-03-02T10:11:35;98250.03;;;14.06;56.59
32083;BME280;18597;48.328;7.932;2024-03-02T10:14:12;98245.41;;;14.00;56.96
32083;BME280;18597;48.328;7.932;2024-03-02T10:16:42;98237.88;;;13.66;56.95
32083;BME280;18597;48.328;7.932;2024-03-02T10:19:23;98240.97;;;13.63;57.53
32083;BME280;18597;48.328;7.932;2024-03-02T10:21:52;98239.00;;;13.56;57.17
32083;BME280;18597;48.328;7.932;2024-03-02T10:24:20;98232.91;;;13.48;57.61
32083;BME280;18597;48.328;7.932;2024-03-02T10:26:46;98240.75;;;13.49;57.69
32083;BME280;18597;48.328;7.932;2024-03-02T10:29:13;98236.97;;;13.58;55.21
32083;BME280;18597;48.328;7.932;2024-03-02T10:31:41;98229.59;;;13.75;57.29
32083;BME280;18597;48.328;7.932;2024-03-02T10:34:09;98225.19;;;13.89;57.40
32083;BME280;18597;48.328;7.932;2024-03-02T10:36:35;98220.66;;;14.04;54.51
32083;BME280;18597;48.328;7.932;2024-03-02T10:39:04;98222.97;;;14.22;54.88
32083;BME280;18597;48.328;7.932;2024-03-02T10:41:35;98218.03;;;14.26;54.47
32083;BME280;18597;48.328;7.932;2024-03-02T10:44:05;98212.72;;;14.47;53.41
32083;BME280;18597;48.328;7.932;2024-03-02T10:46:33;98209.00;;;14.48;53.75
32083;BME280;18597;48.328;7.932;2024-03-02T10:49:02;98213.25;;;14.42;54.44
32083;BME280;18597;48.328;7.932;2024-03-02T10:51:31;98195.22;;;14.36;51.83
32083;BME280;18597;48.328;7.932;2024-03-02T10:53:59;98201.66;;;14.57;53.55
32083;BME280;18597;48.328;7.932;2024-03-02T10:56:31;98193.38;;;14.58;53.91
32083;BME280;18597;48.328;7.932;2024-03-02T10:59:05;98196.13;;;14.86;48.19
32083;BME280;18597;48.328;7.932;2024-03-02T11:01:32;98195.28;;;15.07;47.68
32083;BME280;18597;48.328;7.932;2024-03-02T11:03:59;98193.22;;;15.09;47.89
32083;BME280;18597;48.328;7.932;2024-03-02T11:06:28;98197.78;;;15.37;49.52
32083;BME280;18597;48.328;7.932;2024-03-02T11:08:58;98191.59;;;15.64;48.74
32083;BME280;18597;48.328;7.932;2024-03-02T11:11:30;98197.09;;;15.91;48.21
32083;BME280;18597;48.328;7.932;2024-03-02T11:14:01;98190.53;;;16.06;46.73
32083;BME280;18597;48.328;7.932;2024-03-02T11:16:37;98177.84;;;15.87;46.34
32083;BME280;18597;48.328;7.932;2024-03-02T11:19:12;98185.41;;;15.77;46.16
32083;BME280;18597;48.328;7.932;2024-03-02T11:21:39;98188.13;;;15.77;46.22
32083;BME280;18597;48.328;7.932;2024-03-02T11:24:28;98192.28;;;15.79;46.10
32083;BME280;18597;48.328;7.932;2024-03-02T11:26:59;98180.53;;;15.94;46.50
32083;BME280;18597;48.328;7.932;2024-03-02T11:29:44;98179.66;;;15.87;43.67
32083;BME280;18597;48.328;7.932;2024-03-02T11:32:16;98168.50;;;15.90;45.02
32083;BME280;18597;48.328;7.932;2024-03-02T11:34:45;98171.03;;;15.98;44.63
32083;BME280;18597;48.328;7.932;2024-03-02T11:37:13;98171.72;;;16.20;43.70
32083;BME280;18597;48.328;7.932;2024-03-02T11:39:40;98156.63;;;16.38;43.18
32083;BME280;18597;48.328;7.932;2024-03-02T11:42:07;98145.25;;;16.50;44.02
32083;BME280;18597;48.328;7.932;2024-03-02T11:44:38;98153.38;;;16.63;43.39
32083;BME280;18597;48.328;7.932;2024-03-02T11:47:07;98143.25;;;16.78;42.55
32083;BME280;18597;48.328;7.932;2024-03-02T11:49:49;98144.28;;;16.90;42.28
32083;BME280;18597;48.328;7.932;2024-03-02T11:52:16;98135.28;;;16.37;42.35
32083;BME280;18597;48.328;7.932;2024-03-02T11:54:45;98140.09;;;16.68;42.67
32083;BME280;18597;48.328;7.932;2024-03-02T11:57:16;98136.81;;;16.79;41.13
32083;BME280;18597;48.328;7.932;2024-03-02T11:59:43;98123.53;;;16.84;41.94
32083;BME280;18597;48.328;7.932;2024-03-02T12:02:19;98132.25;;;16.73;41.70
32083;BME280;18597;48.328;7.932;2024-03-02T12:04:47;98123.06;;;16.61;41.38
32083;BME280;18597;48.328;7.932;2024-03-02T12:07:19;98124.13;;;16.60;42.82
32083;BME280;18597;48.328;7.932;2024-03-02T12:09:59;98113.13;;;16.61;42.23
32083;BME280;18597;48.328;7.932;2024-03-02T12:12:26;98118.09;;;16.45;41.39
32083;BME280;18597;48.328;7.932;2024-03-02T12:14:53;98116.41;;;16.37;40.49
32083;BME280;18597;48.328;7.932;2024-03-02T12:17:21;98104.59;;;16.31;42.06
32083;BME280;18597;48.328;7.932;2024-03-02T12:19:48;98108.75;;;16.34;40.95
32083;BME280;18597;48.328;7.932;2024-03-02T12:22:14;98098.59;;;16.36;42.09
32083;BME280;18597;48.328;7.932;2024-03-02T12:24:41;98105.84;;;16.29;41.21
32083;BME280;18597;48.328;7.932;2024-03-02T12:27:12;98102.72;;;16.32;42.23
32083;BME280;18597;48.328;7.932;2024-03-02T12:29:38;98104.59;;;16.25;42.25
32083;BME280;18597;48.328;7.932;2024-03-02T12:32:05;98098.97;;;16.20;42.65
32083;BME280;18597;48.328;7.932;2024-03-02T12:34:31;98100.66;;;16.27;42.84
32083;BME280;18597;48.328;7.932;2024-03-02T12:36:57;98085.94;;;16.36;42.62
32083;BME280;18597;48.328;7.932;2024-03-02T12:39:23;98078.66;;;16.24;42.22
32083;BME280;18597;48.328;7.932;2024-03-02T12:41:50;98086.34;;;16.20;43.01
32083;BME280;18597;48.328;7.932;2024-03-02T12:44:18;98077.19;;;16.15;43.03
32083;BME280;18597;48.328;7.932;2024-03-02T12:46:44;98082.81;;;16.13;41.97
32083;BME280;18597;48.328;7.932;2024-03-02T12:49:12;98074.50;;;16.15;42.02
32083;BME280;18597;48.328;7.932;2024-03-02T12:51:40;98068.53;;;16.26;41.73
32083;BME280;18597;48.328;7.932;2024-03-02T12:54:09;98068.31;;;16.47;41.76
32083;BME280;18597;48.328;7.932;2024-03-02T12:56:37;98063.59;;;16.82;40.16
32083;BME280;18597;48.328;7.932;2024-03-02T12:59:04;98058.34;;;17.07;40.25
32083;BME280;18597;48.328;7.932;2024-03-02T13:01:31;98059.59;;;17.18;38.54